sensor_id;sensor_type;location;lat;lon;timestamp;P1;durP1;ratioP1;P2;durP2;ratioP2
39322;SDS011;25036;53.638;10.134;2023-08-20T00:00:58;7.28;;;4.50;;
39322;SDS011;25036;53.638;10.134;2023-08-20T00:01:59;7.55;;;4.15;;
39322;SDS011;25036;53.638;10.134;2023-08-20T00:03:10;8.95;;;4.53;;
39322;SDS011;25036;53.638;10.134;2023-08-20T00:04:11;9.05;;;4.28;;
39322;SDS011;25036;53.638;10.134;2023-08-20T00:05:11;9.80;;;4.13;;
39322;SDS011;25036;53.638;10.134;2023-08-20T00:06:11;7.82;;;3.90;;
39322;SDS011;25036;53.638;10.134;2023-08-20T00:07:12;11.38;;;4.40;;
39322;SDS011;25036;53.638;10.134;2023-08-20T00:08:12;11.43;;;4.28;;
39322;SDS011;25036;53.638;10.134;2023-08-20T00:09:12;9.07;;;4.30;;
39322;SDS011;25036;53.638;10.134;2023-08-20T00:10:12;8.07;;;3.90;;
39322;SDS011;25036;53.638;10.134;2023-08-20T00:11:12;12.30;;;4.47;;
39322;SDS011;25036;53.638;10.134;2023-08-20T00:12:13;6.50;;;4.15;;
39322;SDS011;25036;53.638;10.134;2023-08-20T00:13:13;7.97;;;3.60;;
39322;SDS011;25036;53.638;10.134;2023-08-20T00:14:16;9.70;;;4.30;;
39322;SDS011;25036;53.638;10.134;2023-08-20T00:15:17;6.25;;;3.90;;
39322;SDS011;25036;53.638;10.134;2023-08-20T00:16:19;8.77;;;3.95;;
39322;SDS011;25036;53.638;10.134;2023-08-20T00:17:19;7.22;;;4.00;;
39322;SDS011;25036;53.638;10.134;2023-08-20T00:18:19;12.15;;;4.47;;
39322;SDS011;25036;53.638;10.134;2023-08-20T00:19:20;10.05;;;4.47;;
39322;SDS011;25036;53.638;10.134;2023-08-20T00:20:20;7.13;;;3.65;;
39322;SDS011;25036;53.638;10.134;2023-08-20T00:21:21;8.05;;;4.22;;
39322;SDS011;25036;53.638;10.134;2023-08-20T00:22:23;12.55;;;4.65;;
39322;SDS011;25036;53.638;10.134;2023-08-20T00:23:24;10.98;;;4.57;;
39322;SDS011;25036;53.638;10.134;2023-08-20T00:24:24;6.78;;;3.88;;
39322;SDS011;25036;53.638;10.134;2023-08-20T00:25:24;10.35;;;4.07;;
39322;SDS011;25036;53.638;10.134;2023-08-20T00:26:25;10.93;;;4.43;;
39322;SDS011;25036;53.638;10.134;2023-08-20T00:27:25;9.55;;;4.38;;
39322;SDS011;25036;53.638;10.134;2023-08-20T00:28:25;9.88;;;4.40;;
39322;SDS011;25036;53.638;10.134;2023-08-20T00:29:25;11.13;;;4.27;;
39322;SDS011;25036;53.638;10.134;2023-08-20T00:30:25;12.63;;;4.90;;
39322;SDS011;25036;53.638;10.134;2023-08-20T00:31:25;9.82;;;4.22;;
39322;SDS011;25036;53.638;10.134;2023-08-20T00:32:26;8.77;;;4.43;;
39322;SDS011;25036;53.638;10.134;2023-08-20T00:33:26;6.57;;;3.67;;
39322;SDS011;25036;53.638;10.134;2023-08-20T00:34:26;10.20;;;4.40;;
39322;SDS011;25036;53.638;10.134;2023-08-20T00:35:26;8.50;;;3.90;;
39322;SDS011;25036;53.638;10.134;2023-08-20T00:36:26;8.10;;;4.00;;
39322;SDS011;25036;53.638;10.134;2023-08-20T00:37:26;9.87;;;3.77;;
39322;SDS011;25036;53.638;10.134;2023-08-20T00:38:26;9.10;;;4.00;;
39322;SDS011;25036;53.638;10.134;2023-08-20T00:39:26;11.50;;;3.57;;
39322;SDS011;25036;53.638;10.134;2023-08-20T00:40:27;7.97;;;3.70;;
39322;SDS011;25036;53.638;10.134;2023-08-20T00:41:27;11.40;;;4.33;;
39322;SDS011;25036;53.638;10.134;2023-08-20T00:42:27;8.30;;;3.47;;
39322;SDS011;25036;53.638;10.134;2023-08-20T00:43:27;9.50;;;4.00;;
39322;SDS011;25036;53.638;10.134;2023-08-20T00:44:27;7.23;;;3.53;;
39322;SDS011;25036;53.638;10.134;2023-08-20T00:45:28;7.75;;;4.35;;
39322;SDS011;25036;53.638;10.134;2023-08-20T00:46:28;8.50;;;3.80;;
39322;SDS011;25036;53.638;10.134;2023-08-20T00:47:28;9.47;;;3.90;;
39322;SDS011;25036;53.638;10.134;2023-08-20T00:48:28;7.60;;;3.70;;
39322;SDS011;25036;53.638;10.134;2023-08-20T00:49:29;7.78;;;3.60;;
39322;SDS011;25036;53.638;10.134;2023-08-20T00:50:29;7.78;;;3.42;;
39322;SDS011;25036;53.638;10.134;2023-08-20T00:51:32;6.80;;;3.90;;
39322;SDS011;25036;53.638;10.134;2023-08-20T00:52:32;8.32;;;4.00;;
39322;SDS011;25036;53.638;10.134;2023-08-20T00:53:33;7.53;;;3.92;;
39322;SDS011;25036;53.638;10.134;2023-08-20T00:54:33;6.20;;;3.47;;
39322;SDS011;25036;53.638;10.134;2023-08-20T00:55:33;10.50;;;3.90;;
39322;SDS011;25036;53.638;10.134;2023-08-20T00:56:33;6.93;;;3.63;;
39322;SDS011;25036;53.638;10.134;2023-08-20T00:57:34;6.85;;;3.95;;
39322;SDS011;25036;53.638;10.134;2023-08-20T00:58:34;7.80;;;4.05;;
39322;SDS011;25036;53.638;10.134;2023-08-20T00:59:34;9.50;;;4.38;;
39322;SDS011;25036;53.638;10.134;2023-08-20T01:00:35;7.72;;;3.90;;
39322;SDS011;25036;53.638;10.134;2023-08-20T01:01:35;7.03;;;3.57;;
39322;SDS011;25036;53.638;10.134;2023-08-20T01:02:35;7.77;;;3.37;;
39322;SDS011;25036;53.638;10.134;2023-08-20T01:03:35;7.80;;;3.75;;
39322;SDS011;25036;53.638;10.134;2023-08-20T01:04:35;5.77;;;3.47;;
39322;SDS011;25036;53.638;10.134;2023-08-20T01:05:38;7.50;;;3.80;;
39322;SDS011;25036;53.638;10.134;2023-08-20T01:08:58;9.27;;;4.07;;
39322;SDS011;25036;53.638;10.134;2023-08-20T01:11:10;7.80;;;4.28;;
39322;SDS011;25036;53.638;10.134;2023-08-20T01:12:12;5.72;;;3.92;;
39322;SDS011;25036;53.638;10.134;2023-08-20T01:13:13;8.55;;;4.10;;
39322;SDS011;25036;53.638;10.134;2023-08-20T01:14:14;8.82;;;3.90;;
39322;SDS011;25036;53.638;10.134;2023-08-20T01:15:14;8.45;;;4.07;;
39322;SDS011;25036;53.638;10.134;2023-08-20T01:16:15;10.15;;;4.05;;
39322;SDS011;25036;53.638;10.134;2023-08-20T01:17:15;7.70;;;3.90;;
39322;SDS011;25036;53.638;10.134;2023-08-20T01:18:15;5.17;;;3.50;;
39322;SDS011;25036;53.638;10.134;2023-08-20T01:19:19;8.13;;;3.87;;
39322;SDS011;25036;53.638;10.134;2023-08-20T01:20:20;9.90;;;4.30;;
39322;SDS011;25036;53.638;10.134;2023-08-20T01:21:46;8.65;;;4.20;;
39322;SDS011;25036;53.638;10.134;2023-08-20T01:28:29;6.50;;;4.20;;
39322;SDS011;25036;53.638;10.134;2023-08-20T01:29:29;7.43;;;4.05;;
39322;SDS011;25036;53.638;10.134;2023-08-20T01:30:30;10.27;;;4.60;;
39322;SDS011;25036;53.638;10.134;2023-08-20T01:31:31;8.82;;;3.83;;
39322;SDS011;25036;53.638;10.134;2023-08-20T01:32:32;6.25;;;4.10;;
39322;SDS011;25036;53.638;10.134;2023-08-20T01:33:32;7.78;;;4.05;;
39322;SDS011;25036;53.638;10.134;2023-08-20T01:34:33;9.90;;;3.72;;
39322;SDS011;25036;53.638;10.134;2023-08-20T01:35:33;7.07;;;3.80;;
39322;SDS011;25036;53.638;10.134;2023-08-20T01:36:33;5.43;;;3.80;;
39322;SDS011;25036;53.638;10.134;2023-08-20T01:37:33;8.57;;;3.93;;
39322;SDS011;25036;53.638;10.134;2023-08-20T01:38:34;7.20;;;4.00;;
39322;SDS011;25036;53.638;10.134;2023-08-20T01:39:34;5.37;;;3.33;;
39322;SDS011;25036;53.638;10.134;2023-08-20T01:40:34;7.83;;;4.33;;
39322;SDS011;25036;53.638;10.134;2023-08-20T01:41:34;7.30;;;3.75;;
39322;SDS011;25036;53.638;10.134;2023-08-20T01:42:35;6.30;;;3.70;;
39322;SDS011;25036;53.638;10.134;2023-08-20T01:43:35;6.80;;;3.80;;
39322;SDS011;25036;53.638;10.134;2023-08-20T01:44:35;6.63;;;3.97;;
39322;SDS011;25036;53.638;10.134;2023-08-20T01:45:35;7.47;;;3.83;;
39322;SDS011;25036;53.638;10.134;2023-08-20T01:46:35;7.73;;;4.37;;
39322;SDS011;25036;53.638;10.134;2023-08-20T01:47:36;8.77;;;3.70;;
39322;SDS011;25036;53.638;10.134;2023-08-20T01:48:36;8.90;;;4.33;;
39322;SDS011;25036;53.638;10.134;2023-08-20T01:49:37;9.17;;;4.60;;
39322;SDS011;25036;53.638;10.134;2023-08-20T01:50:37;6.37;;;4.60;;
39322;SDS011;25036;53.638;10.134;2023-08-20T01:51:37;7.30;;;4.60;;
39322;SDS011;25036;53.638;10.134;2023-08-20T01:52:37;10.43;;;5.50;;
39322;SDS011;25036;53.638;10.134;2023-08-20T01:53:37;10.17;;;5.03;;
39322;SDS011;25036;53.638;10.134;2023-08-20T01:54:37;13.73;;;6.13;;
39322;SDS011;25036;53.638;10.134;2023-08-20T01:55:37;9.40;;;5.60;;
39322;SDS011;25036;53.638;10.134;2023-08-20T01:56:37;9.77;;;5.72;;
39322;SDS011;25036;53.638;10.134;2023-08-20T01:57:38;9.73;;;5.80;;
39322;SDS011;25036;53.638;10.134;2023-08-20T01:58:38;10.20;;;4.97;;
39322;SDS011;25036;53.638;10.134;2023-08-20T01:59:38;8.50;;;4.72;;
39322;SDS011;25036;53.638;10.134;2023-08-20T02:00:38;11.53;;;5.13;;
39322;SDS011;25036;53.638;10.134;2023-08-20T02:01:38;8.70;;;4.50;;
39322;SDS011;25036;53.638;10.134;2023-08-20T02:02:39;9.33;;;4.90;;
39322;SDS011;25036;53.638;10.134;2023-08-20T02:03:39;9.13;;;4.57;;
39322;SDS011;25036;53.638;10.134;2023-08-20T02:04:39;8.27;;;4.20;;
39322;SDS011;25036;53.638;10.134;2023-08-20T02:05:39;6.60;;;4.03;;
39322;SDS011;25036;53.638;10.134;2023-08-20T02:06:39;7.90;;;4.37;;
39322;SDS011;25036;53.638;10.134;2023-08-20T02:07:39;11.77;;;3.97;;
39322;SDS011;25036;53.638;10.134;2023-08-20T02:08:39;7.63;;;4.40;;
39322;SDS011;25036;53.638;10.134;2023-08-20T02:09:39;9.97;;;4.30;;
39322;SDS011;25036;53.638;10.134;2023-08-20T02:10:40;10.13;;;4.73;;
39322;SDS011;25036;53.638;10.134;2023-08-20T02:11:40;7.53;;;4.80;;
39322;SDS011;25036;53.638;10.134;2023-08-20T02:12:40;8.27;;;4.53;;
39322;SDS011;25036;53.638;10.134;2023-08-20T02:13:40;12.05;;;4.78;;
39322;SDS011;25036;53.638;10.134;2023-08-20T02:14:41;13.60;;;4.80;;
39322;SDS011;25036;53.638;10.134;2023-08-20T02:15:41;9.30;;;4.85;;
39322;SDS011;25036;53.638;10.134;2023-08-20T02:16:41;6.40;;;4.10;;
39322;SDS011;25036;53.638;10.134;2023-08-20T02:17:41;8.57;;;4.63;;
39322;SDS011;25036;53.638;10.134;2023-08-20T02:18:41;13.50;;;5.20;;
39322;SDS011;25036;53.638;10.134;2023-08-20T02:19:41;8.20;;;4.07;;
39322;SDS011;25036;53.638;10.134;2023-08-20T02:20:43;13.33;;;4.90;;
39322;SDS011;25036;53.638;10.134;2023-08-20T02:21:43;8.60;;;4.10;;
39322;SDS011;25036;53.638;10.134;2023-08-20T02:22:43;8.90;;;4.17;;
39322;SDS011;25036;53.638;10.134;2023-08-20T02:23:43;9.87;;;4.60;;
39322;SDS011;25036;53.638;10.134;2023-08-20T02:24:43;6.23;;;4.40;;
39322;SDS011;25036;53.638;10.134;2023-08-20T02:25:43;7.40;;;3.70;;
39322;SDS011;25036;53.638;10.134;2023-08-20T02:28:28;6.22;;;4.00;;
39322;SDS011;25036;53.638;10.134;2023-08-20T02:29:28;9.20;;;4.50;;
39322;SDS011;25036;53.638;10.134;2023-08-20T02:30:28;6.33;;;3.90;;
39322;SDS011;25036;53.638;10.134;2023-08-20T02:31:28;6.43;;;3.70;;
39322;SDS011;25036;53.638;10.134;2023-08-20T02:32:28;9.07;;;4.33;;
39322;SDS011;25036;53.638;10.134;2023-08-20T02:33:28;7.57;;;3.88;;
39322;SDS011;25036;53.638;10.134;2023-08-20T02:34:28;9.67;;;4.40;;
39322;SDS011;25036;53.638;10.134;2023-08-20T02:35:29;6.23;;;3.90;;
39322;SDS011;25036;53.638;10.134;2023-08-20T02:36:30;8.18;;;4.25;;
39322;SDS011;25036;53.638;10.134;2023-08-20T02:37:31;9.10;;;4.27;;
39322;SDS011;25036;53.638;10.134;2023-08-20T02:38:31;8.35;;;4.80;;
39322;SDS011;25036;53.638;10.134;2023-08-20T02:39:31;9.40;;;4.60;;
39322;SDS011;25036;53.638;10.134;2023-08-20T02:40:31;8.67;;;4.60;;
39322;SDS011;25036;53.638;10.134;2023-08-20T02:41:32;9.90;;;5.03;;
39322;SDS011;25036;53.638;10.134;2023-08-20T02:42:32;9.70;;;4.90;;
39322;SDS011;25036;53.638;10.134;2023-08-20T02:43:32;8.70;;;4.73;;
39322;SDS011;25036;53.638;10.134;2023-08-20T02:44:32;11.17;;;4.77;;
39322;SDS011;25036;53.638;10.134;2023-08-20T02:45:32;9.00;;;4.40;;
39322;SDS011;25036;53.638;10.134;2023-08-20T02:46:32;9.48;;;4.10;;
39322;SDS011;25036;53.638;10.134;2023-08-20T02:47:33;6.47;;;3.77;;
39322;SDS011;25036;53.638;10.134;2023-08-20T02:48:33;8.73;;;4.17;;
39322;SDS011;25036;53.638;10.134;2023-08-20T02:49:33;6.57;;;4.75;;
39322;SDS011;25036;53.638;10.134;2023-08-20T02:50:33;7.37;;;4.30;;
39322;SDS011;25036;53.638;10.134;2023-08-20T02:51:34;11.30;;;4.67;;
39322;SDS011;25036;53.638;10.134;2023-08-20T02:52:34;10.47;;;4.20;;
39322;SDS011;25036;53.638;10.134;2023-08-20T02:53:34;6.50;;;4.20;;
39322;SDS011;25036;53.638;10.134;2023-08-20T02:54:34;7.23;;;4.03;;
39322;SDS011;25036;53.638;10.134;2023-08-20T02:55:34;8.60;;;4.10;;
39322;SDS011;25036;53.638;10.134;2023-08-20T02:56:35;8.82;;;4.30;;
39322;SDS011;25036;53.638;10.134;2023-08-20T02:57:35;11.40;;;5.07;;
39322;SDS011;25036;53.638;10.134;2023-08-20T02:58:35;10.23;;;4.83;;
39322;SDS011;25036;53.638;10.134;2023-08-20T02:59:35;12.50;;;4.83;;
39322;SDS011;25036;53.638;10.134;2023-08-20T03:00:36;10.07;;;4.47;;
39322;SDS011;25036;53.638;10.134;2023-08-20T03:01:36;9.85;;;3.92;;
39322;SDS011;25036;53.638;10.134;2023-08-20T03:02:36;10.57;;;4.60;;
39322;SDS011;25036;53.638;10.134;2023-08-20T03:03:36;9.60;;;4.07;;
39322;SDS011;25036;53.638;10.134;2023-08-20T03:04:38;9.90;;;4.10;;
39322;SDS011;25036;53.638;10.134;2023-08-20T03:05:38;10.90;;;4.00;;
39322;SDS011;25036;53.638;10.134;2023-08-20T03:06:38;10.83;;;4.70;;
39322;SDS011;25036;53.638;10.134;2023-08-20T03:07:38;9.97;;;4.57;;
39322;SDS011;25036;53.638;10.134;2023-08-20T03:08:38;25.75;;;6.35;;
39322;SDS011;25036;53.638;10.134;2023-08-20T03:09:38;17.63;;;6.00;;
39322;SDS011;25036;53.638;10.134;2023-08-20T03:10:38;23.83;;;5.50;;
39322;SDS011;25036;53.638;10.134;2023-08-20T03:11:39;20.87;;;6.47;;
39322;SDS011;25036;53.638;10.134;2023-08-20T03:12:39;16.33;;;7.33;;
39322;SDS011;25036;53.638;10.134;2023-08-20T03:13:39;17.97;;;7.57;;
39322;SDS011;25036;53.638;10.134;2023-08-20T03:14:39;13.87;;;7.20;;
39322;SDS011;25036;53.638;10.134;2023-08-20T03:15:39;32.77;;;8.20;;
39322;SDS011;25036;53.638;10.134;2023-08-20T03:16:39;24.00;;;8.38;;
39322;SDS011;25036;53.638;10.134;2023-08-20T03:17:40;21.03;;;7.97;;
39322;SDS011;25036;53.638;10.134;2023-08-20T03:18:40;23.17;;;8.45;;
39322;SDS011;25036;53.638;10.134;2023-08-20T03:19:52;30.77;;;8.30;;
39322;SDS011;25036;53.638;10.134;2023-08-20T03:20:54;29.70;;;10.10;;
39322;SDS011;25036;53.638;10.134;2023-08-20T03:21:54;26.90;;;8.65;;
39322;SDS011;25036;53.638;10.134;2023-08-20T03:22:54;37.07;;;9.13;;
39322;SDS011;25036;53.638;10.134;2023-08-20T03:23:54;25.63;;;9.73;;
39322;SDS011;25036;53.638;10.134;2023-08-20T03:24:54;36.43;;;9.20;;
39322;SDS011;25036;53.638;10.134;2023-08-20T03:25:57;22.30;;;8.65;;
39322;SDS011;25036;53.638;10.134;2023-08-20T03:26:57;28.02;;;11.00;;
39322;SDS011;25036;53.638;10.134;2023-08-20T03:27:57;24.93;;;10.67;;
39322;SDS011;25036;53.638;10.134;2023-08-20T03:28:57;24.10;;;10.53;;
39322;SDS011;25036;53.638;10.134;2023-08-20T03:29:58;23.13;;;10.10;;
39322;SDS011;25036;53.638;10.134;2023-08-20T03:30:59;18.17;;;9.30;;
39322;SDS011;25036;53.638;10.134;2023-08-20T03:31:59;24.75;;;9.82;;
39322;SDS011;25036;53.638;10.134;2023-08-20T03:33:00;18.83;;;8.97;;
39322;SDS011;25036;53.638;10.134;2023-08-20T03:34:00;19.77;;;9.43;;
39322;SDS011;25036;53.638;10.134;2023-08-20T03:35:00;19.80;;;9.73;;
39322;SDS011;25036;53.638;10.134;2023-08-20T03:36:01;19.00;;;9.90;;
39322;SDS011;25036;53.638;10.134;2023-08-20T03:37:01;19.98;;;8.65;;
39322;SDS011;25036;53.638;10.134;2023-08-20T03:38:02;15.30;;;8.50;;
39322;SDS011;25036;53.638;10.134;2023-08-20T03:39:02;17.15;;;8.25;;
39322;SDS011;25036;53.638;10.134;2023-08-20T03:40:03;19.38;;;8.23;;
39322;SDS011;25036;53.638;10.134;2023-08-20T03:41:04;17.67;;;7.95;;
39322;SDS011;25036;53.638;10.134;2023-08-20T03:42:05;18.37;;;7.77;;
39322;SDS011;25036;53.638;10.134;2023-08-20T03:43:05;20.90;;;8.10;;
39322;SDS011;25036;53.638;10.134;2023-08-20T03:44:05;15.77;;;6.87;;
39322;SDS011;25036;53.638;10.134;2023-08-20T03:45:05;17.17;;;7.00;;
39322;SDS011;25036;53.638;10.134;2023-08-20T03:46:05;16.90;;;6.80;;
39322;SDS011;25036;53.638;10.134;2023-08-20T03:47:06;16.13;;;7.30;;
39322;SDS011;25036;53.638;10.134;2023-08-20T03:48:06;14.47;;;6.77;;
39322;SDS011;25036;53.638;10.134;2023-08-20T03:49:06;13.90;;;6.60;;
39322;SDS011;25036;53.638;10.134;2023-08-20T03:50:06;12.30;;;5.70;;
39322;SDS011;25036;53.638;10.134;2023-08-20T03:51:06;11.23;;;5.82;;
39322;SDS011;25036;53.638;10.134;2023-08-20T03:52:06;11.70;;;5.47;;
39322;SDS011;25036;53.638;10.134;2023-08-20T03:53:07;13.83;;;6.23;;
39322;SDS011;25036;53.638;10.134;2023-08-20T03:54:07;13.77;;;5.83;;
39322;SDS011;25036;53.638;10.134;2023-08-20T03:55:07;11.63;;;6.10;;
39322;SDS011;25036;53.638;10.134;2023-08-20T03:56:07;10.68;;;5.45;;
39322;SDS011;25036;53.638;10.134;2023-08-20T03:57:07;13.03;;;6.10;;
39322;SDS011;25036;53.638;10.134;2023-08-20T03:58:07;9.88;;;5.85;;
39322;SDS011;25036;53.638;10.134;2023-08-20T03:59:08;16.80;;;6.57;;
39322;SDS011;25036;53.638;10.134;2023-08-20T04:00:08;12.60;;;5.88;;
39322;SDS011;25036;53.638;10.134;2023-08-20T04:01:09;11.63;;;5.60;;
39322;SDS011;25036;53.638;10.134;2023-08-20T04:02:09;12.97;;;6.00;;
39322;SDS011;25036;53.638;10.134;2023-08-20T04:03:09;12.57;;;5.93;;
39322;SDS011;25036;53.638;10.134;2023-08-20T04:04:10;11.57;;;5.47;;
39322;SDS011;25036;53.638;10.134;2023-08-20T04:05:10;9.83;;;5.43;;
39322;SDS011;25036;53.638;10.134;2023-08-20T04:06:10;11.23;;;5.20;;
39322;SDS011;25036;53.638;10.134;2023-08-20T04:07:10;8.97;;;5.17;;
39322;SDS011;25036;53.638;10.134;2023-08-20T04:08:10;10.23;;;5.50;;
39322;SDS011;25036;53.638;10.134;2023-08-20T04:09:10;11.68;;;5.43;;
39322;SDS011;25036;53.638;10.134;2023-08-20T04:10:11;8.43;;;5.28;;
39322;SDS011;25036;53.638;10.134;2023-08-20T04:11:11;8.10;;;4.80;;
39322;SDS011;25036;53.638;10.134;2023-08-20T04:12:11;12.20;;;6.20;;
39322;SDS011;25036;53.638;10.134;2023-08-20T04:13:11;10.03;;;5.37;;
39322;SDS011;25036;53.638;10.134;2023-08-20T04:14:13;9.90;;;5.30;;
39322;SDS011;25036;53.638;10.134;2023-08-20T04:15:13;12.27;;;5.77;;
39322;SDS011;25036;53.638;10.134;2023-08-20T04:16:13;8.80;;;5.33;;
39322;SDS011;25036;53.638;10.134;2023-08-20T04:17:14;10.00;;;5.13;;
39322;SDS011;25036;53.638;10.134;2023-08-20T04:18:14;8.83;;;5.13;;
39322;SDS011;25036;53.638;10.134;2023-08-20T04:19:14;9.43;;;5.28;;
39322;SDS011;25036;53.638;10.134;2023-08-20T04:20:14;8.13;;;4.97;;
39322;SDS011;25036;53.638;10.134;2023-08-20T04:21:14;8.93;;;5.10;;
39322;SDS011;25036;53.638;10.134;2023-08-20T04:22:15;10.33;;;4.70;;
39322;SDS011;25036;53.638;10.134;2023-08-20T04:23:15;9.90;;;4.80;;
39322;SDS011;25036;53.638;10.134;2023-08-20T04:24:15;7.87;;;5.40;;
39322;SDS011;25036;53.638;10.134;2023-08-20T04:25:15;8.63;;;5.15;;
39322;SDS011;25036;53.638;10.134;2023-08-20T04:26:15;9.32;;;4.90;;
39322;SDS011;25036;53.638;10.134;2023-08-20T04:27:15;8.23;;;5.10;;
39322;SDS011;25036;53.638;10.134;2023-08-20T04:28:16;11.48;;;5.38;;
39322;SDS011;25036;53.638;10.134;2023-08-20T04:29:16;11.70;;;6.22;;
39322;SDS011;25036;53.638;10.134;2023-08-20T04:30:16;10.07;;;5.43;;
39322;SDS011;25036;53.638;10.134;2023-08-20T04:31:16;9.53;;;5.23;;
39322;SDS011;25036;53.638;10.134;2023-08-20T04:32:16;11.13;;;5.27;;
39322;SDS011;25036;53.638;10.134;2023-08-20T04:33:17;10.00;;;5.20;;
39322;SDS011;25036;53.638;10.134;2023-08-20T04:34:17;6.77;;;4.57;;
39322;SDS011;25036;53.638;10.134;2023-08-20T04:35:17;7.97;;;4.67;;
39322;SDS011;25036;53.638;10.134;2023-08-20T04:36:17;9.73;;;4.57;;
39322;SDS011;25036;53.638;10.134;2023-08-20T04:37:20;9.13;;;5.03;;
39322;SDS011;25036;53.638;10.134;2023-08-20T04:38:20;8.07;;;4.90;;
39322;SDS011;25036;53.638;10.134;2023-08-20T04:39:20;7.07;;;4.87;;
39322;SDS011;25036;53.638;10.134;2023-08-20T04:40:21;6.47;;;4.73;;
39322;SDS011;25036;53.638;10.134;2023-08-20T04:41:21;9.77;;;5.40;;
39322;SDS011;25036;53.638;10.134;2023-08-20T04:42:21;8.37;;;5.40;;
39322;SDS011;25036;53.638;10.134;2023-08-20T04:43:21;7.82;;;4.88;;
39322;SDS011;25036;53.638;10.134;2023-08-20T04:44:21;9.40;;;4.30;;
39322;SDS011;25036;53.638;10.134;2023-08-20T04:45:21;11.50;;;5.27;;
39322;SDS011;25036;53.638;10.134;2023-08-20T04:46:22;8.80;;;5.07;;
39322;SDS011;25036;53.638;10.134;2023-08-20T04:47:22;9.63;;;5.00;;
39322;SDS011;25036;53.638;10.134;2023-08-20T04:48:22;10.10;;;5.50;;
39322;SDS011;25036;53.638;10.134;2023-08-20T04:49:22;10.03;;;4.90;;
39322;SDS011;25036;53.638;10.134;2023-08-20T04:50:22;9.25;;;4.80;;
39322;SDS011;25036;53.638;10.134;2023-08-20T04:51:22;8.48;;;5.00;;
39322;SDS011;25036;53.638;10.134;2023-08-20T04:52:23;9.70;;;5.27;;
39322;SDS011;25036;53.638;10.134;2023-08-20T04:53:23;8.27;;;5.25;;
39322;SDS011;25036;53.638;10.134;2023-08-20T04:54:23;9.97;;;5.00;;
39322;SDS011;25036;53.638;10.134;2023-08-20T04:55:23;7.23;;;5.37;;
39322;SDS011;25036;53.638;10.134;2023-08-20T04:56:24;7.97;;;5.03;;
39322;SDS011;25036;53.638;10.134;2023-08-20T04:57:24;9.57;;;4.80;;
39322;SDS011;25036;53.638;10.134;2023-08-20T04:58:24;8.40;;;5.13;;
39322;SDS011;25036;53.638;10.134;2023-08-20T04:59:24;8.82;;;5.30;;
39322;SDS011;25036;53.638;10.134;2023-08-20T05:00:24;6.97;;;5.07;;
39322;SDS011;25036;53.638;10.134;2023-08-20T05:01:24;8.95;;;4.95;;
39322;SDS011;25036;53.638;10.134;2023-08-20T05:02:25;9.47;;;5.27;;
39322;SDS011;25036;53.638;10.134;2023-08-20T05:03:25;8.60;;;5.20;;
39322;SDS011;25036;53.638;10.134;2023-08-20T05:04:25;9.00;;;5.40;;
39322;SDS011;25036;53.638;10.134;2023-08-20T05:05:25;9.77;;;5.23;;
39322;SDS011;25036;53.638;10.134;2023-08-20T05:06:25;8.17;;;5.30;;
39322;SDS011;25036;53.638;10.134;2023-08-20T05:07:26;8.77;;;5.50;;
39322;SDS011;25036;53.638;10.134;2023-08-20T05:08:26;9.35;;;5.43;;
39322;SDS011;25036;53.638;10.134;2023-08-20T05:09:26;6.27;;;4.90;;
39322;SDS011;25036;53.638;10.134;2023-08-20T05:10:26;11.67;;;5.80;;
39322;SDS011;25036;53.638;10.134;2023-08-20T05:11:26;9.75;;;6.00;;
39322;SDS011;25036;53.638;10.134;2023-08-20T05:12:28;11.07;;;5.40;;
39322;SDS011;25036;53.638;10.134;2023-08-20T05:13:28;8.93;;;5.82;;
39322;SDS011;25036;53.638;10.134;2023-08-20T05:14:29;12.30;;;5.70;;
39322;SDS011;25036;53.638;10.134;2023-08-20T05:15:29;11.32;;;5.80;;
39322;SDS011;25036;53.638;10.134;2023-08-20T05:16:29;8.73;;;5.67;;
39322;SDS011;25036;53.638;10.134;2023-08-20T05:17:29;13.07;;;6.27;;
39322;SDS011;25036;53.638;10.134;2023-08-20T05:18:29;10.13;;;6.17;;
39322;SDS011;25036;53.638;10.134;2023-08-20T05:19:30;10.57;;;6.37;;
39322;SDS011;25036;53.638;10.134;2023-08-20T05:20:30;9.07;;;6.30;;
39322;SDS011;25036;53.638;10.134;2023-08-20T05:21:30;10.13;;;6.47;;
39322;SDS011;25036;53.638;10.134;2023-08-20T05:22:30;11.40;;;6.57;;
39322;SDS011;25036;53.638;10.134;2023-08-20T05:23:30;10.07;;;5.93;;
39322;SDS011;25036;53.638;10.134;2023-08-20T05:24:30;8.67;;;5.63;;
39322;SDS011;25036;53.638;10.134;2023-08-20T05:25:30;8.03;;;5.70;;
39322;SDS011;25036;53.638;10.134;2023-08-20T05:26:30;12.00;;;5.83;;
39322;SDS011;25036;53.638;10.134;2023-08-20T05:27:31;12.53;;;6.57;;
39322;SDS011;25036;53.638;10.134;2023-08-20T05:28:31;9.47;;;5.90;;
39322;SDS011;25036;53.638;10.134;2023-08-20T05:29:31;11.98;;;6.70;;
39322;SDS011;25036;53.638;10.134;2023-08-20T05:30:31;12.75;;;7.25;;
39322;SDS011;25036;53.638;10.134;2023-08-20T05:31:31;14.80;;;7.67;;
39322;SDS011;25036;53.638;10.134;2023-08-20T05:32:31;15.40;;;8.53;;
39322;SDS011;25036;53.638;10.134;2023-08-20T05:33:32;17.03;;;8.83;;
39322;SDS011;25036;53.638;10.134;2023-08-20T05:34:32;13.70;;;7.88;;
39322;SDS011;25036;53.638;10.134;2023-08-20T05:35:32;17.38;;;9.15;;
39322;SDS011;25036;53.638;10.134;2023-08-20T05:36:32;13.60;;;8.80;;
39322;SDS011;25036;53.638;10.134;2023-08-20T05:37:33;13.37;;;8.47;;
39322;SDS011;25036;53.638;10.134;2023-08-20T05:38:33;15.53;;;9.00;;
39322;SDS011;25036;53.638;10.134;2023-08-20T05:39:36;13.00;;;8.83;;
39322;SDS011;25036;53.638;10.134;2023-08-20T05:40:37;14.10;;;8.60;;
39322;SDS011;25036;53.638;10.134;2023-08-20T05:41:37;14.20;;;9.77;;
39322;SDS011;25036;53.638;10.134;2023-08-20T05:42:38;15.80;;;9.00;;
39322;SDS011;25036;53.638;10.134;2023-08-20T05:43:38;12.93;;;9.20;;
39322;SDS011;25036;53.638;10.134;2023-08-20T05:44:38;14.13;;;9.43;;
39322;SDS011;25036;53.638;10.134;2023-08-20T05:45:38;14.55;;;9.30;;
39322;SDS011;25036;53.638;10.134;2023-08-20T05:46:38;14.57;;;9.57;;
39322;SDS011;25036;53.638;10.134;2023-08-20T05:47:40;14.30;;;9.90;;
39322;SDS011;25036;53.638;10.134;2023-08-20T05:48:40;14.07;;;9.73;;
39322;SDS011;25036;53.638;10.134;2023-08-20T05:49:40;16.90;;;10.53;;
39322;SDS011;25036;53.638;10.134;2023-08-20T05:50:44;24.77;;;11.20;;
39322;SDS011;25036;53.638;10.134;2023-08-20T05:51:44;18.17;;;10.13;;
39322;SDS011;25036;53.638;10.134;2023-08-20T05:54:32;17.63;;;10.52;;
39322;SDS011;25036;53.638;10.134;2023-08-20T05:55:32;19.90;;;10.10;;
39322;SDS011;25036;53.638;10.134;2023-08-20T05:56:32;20.07;;;10.53;;
39322;SDS011;25036;53.638;10.134;2023-08-20T05:57:33;21.77;;;10.70;;
39322;SDS011;25036;53.638;10.134;2023-08-20T05:58:33;19.63;;;10.60;;
39322;SDS011;25036;53.638;10.134;2023-08-20T05:59:33;21.10;;;11.03;;
39322;SDS011;25036;53.638;10.134;2023-08-20T06:00:33;18.20;;;10.60;;
39322;SDS011;25036;53.638;10.134;2023-08-20T06:01:33;18.85;;;10.77;;
39322;SDS011;25036;53.638;10.134;2023-08-20T06:02:33;17.27;;;10.63;;
39322;SDS011;25036;53.638;10.134;2023-08-20T06:03:33;15.53;;;9.33;;
39322;SDS011;25036;53.638;10.134;2023-08-20T06:04:34;17.23;;;10.40;;
39322;SDS011;25036;53.638;10.134;2023-08-20T06:05:34;13.93;;;9.10;;
39322;SDS011;25036;53.638;10.134;2023-08-20T06:06:34;14.47;;;10.20;;
39322;SDS011;25036;53.638;10.134;2023-08-20T06:07:34;21.00;;;9.73;;
39322;SDS011;25036;53.638;10.134;2023-08-20T06:08:34;19.47;;;10.40;;
39322;SDS011;25036;53.638;10.134;2023-08-20T06:09:34;17.60;;;10.40;;